Terminal Aerodrome Forecast
Issued by NWS Jackson, MS

Home | Current Version | Previous Version | Text Only | Print | Product List | Glossary On
Versions: 1 2 3 4 5 6 7 8 9 10 11 12 13
000
FTUS44 KJAN 290500
TAFGWO
TAF
KGWO 290529Z 2906/3006 36006KT 4SM -DZ OVC007
     FM291800 35005KT P6SM OVC011
     FM300000 01004KT P6SM OVC021=

USA.gov is the U.S. government's official web portal to all federal, state and local government web resources and services.